createdAt,value
2018-06-03T00:00:03.241Z,1010.42
2018-06-03T00:00:43.668Z,1010.43
2018-06-03T00:01:24.095Z,1010.38
2018-06-03T00:02:04.535Z,1010.41
2018-06-03T00:02:44.913Z,1010.41
2018-06-03T00:03:25.307Z,1010.39
2018-06-03T00:04:05.680Z,1010.36
2018-06-03T00:04:46.140Z,1010.34
2018-06-03T00:05:26.485Z,1010.33
2018-06-03T00:06:06.870Z,1010.38
2018-06-03T00:06:47.280Z,1010.34
2018-06-03T00:07:27.714Z,1010.32
2018-06-03T00:08:08.135Z,1010.35
2018-06-03T00:08:48.561Z,1010.33
2018-06-03T00:09:28.923Z,1010.35
2018-06-03T00:10:09.330Z,1010.31
2018-06-03T00:10:49.738Z,1010.33
2018-06-03T00:11:30.095Z,1010.32
2018-06-03T00:12:10.516Z,1010.31
2018-06-03T00:12:50.941Z,1010.35
2018-06-03T00:13:31.321Z,1010.34
2018-06-03T00:14:11.733Z,1010.35
2018-06-03T00:14:52.150Z,1010.3
2018-06-03T00:15:32.566Z,1010.32
2018-06-03T00:16:12.978Z,1010.34
2018-06-03T00:16:53.379Z,1010.3
2018-06-03T00:17:33.772Z,1010.3
2018-06-03T00:18:14.152Z,1010.3
2018-06-03T00:18:54.577Z,1010.33
2018-06-03T00:19:34.980Z,1010.33
2018-06-03T00:20:15.394Z,1010.32
2018-06-03T00:20:55.793Z,1010.36
2018-06-03T00:21:36.151Z,1010.33
2018-06-03T00:22:16.595Z,1010.31
2018-06-03T00:22:57.037Z,1010.31
2018-06-03T00:23:37.383Z,1010.34
2018-06-03T00:24:17.823Z,1010.31
2018-06-03T00:24:58.199Z,1010.31
2018-06-03T00:25:38.611Z,1010.28
2018-06-03T00:26:19.014Z,1010.32
2018-06-03T00:26:59.384Z,1010.33
2018-06-03T00:27:39.863Z,1010.27
2018-06-03T00:28:20.270Z,1010.28
2018-06-03T00:29:00.693Z,1010.28
2018-06-03T00:29:41.059Z,1010.26
2018-06-03T00:30:21.488Z,1010.25
2018-06-03T00:31:01.937Z,1010.26
2018-06-03T00:31:42.336Z,1010.23
2018-06-03T00:32:22.701Z,1010.24
2018-06-03T00:33:03.099Z,1010.26
2018-06-03T00:33:43.520Z,1010.26
2018-06-03T00:34:23.933Z,1010.24
2018-06-03T00:35:04.321Z,1010.2
2018-06-03T00:35:44.698Z,1010.22
2018-06-03T00:36:25.102Z,1010.26
2018-06-03T00:37:05.519Z,1010.21
2018-06-03T00:37:45.885Z,1010.22
2018-06-03T00:38:26.312Z,1010.19
2018-06-03T00:39:06.679Z,1010.15
2018-06-03T00:39:47.144Z,1010.18
2018-06-03T00:40:27.510Z,1010.18
2018-06-03T00:41:07.949Z,1010.17
2018-06-03T00:41:48.341Z,1010.16
2018-06-03T00:42:28.732Z,1010.16
2018-06-03T00:43:09.104Z,1010.16
2018-06-03T00:43:49.517Z,1010.13
2018-06-03T00:44:29.888Z,1010.17
2018-06-03T00:45:10.304Z,1010.17
2018-06-03T00:45:50.738Z,1010.15
2018-06-03T00:46:31.161Z,1010.13
2018-06-03T00:47:11.531Z,1010.14
2018-06-03T00:47:51.924Z,1010.15
2018-06-03T00:48:32.308Z,1010.13
2018-06-03T00:49:12.710Z,1010.15
2018-06-03T00:49:53.131Z,1010.14
2018-06-03T00:50:33.477Z,1010.14
2018-06-03T00:51:13.857Z,1010.2
2018-06-03T00:51:54.273Z,1010.15
2018-06-03T00:52:34.717Z,1010.16
2018-06-03T00:53:15.095Z,1010.17
2018-06-03T00:53:55.509Z,1010.14
2018-06-03T00:54:35.913Z,1010.17
2018-06-03T00:55:16.318Z,1010.2
2018-06-03T00:55:56.701Z,1010.14
2018-06-03T00:56:37.098Z,1010.22
2018-06-03T00:57:17.534Z,1010.18
2018-06-03T00:57:57.958Z,1010.24
2018-06-03T00:58:38.339Z,1010.16
2018-06-03T00:59:18.745Z,1010.19
2018-06-03T00:59:59.156Z,1010.21
2018-06-03T01:00:39.577Z,1010.21
2018-06-03T01:01:20.010Z,1010.19
2018-06-03T01:02:00.424Z,1010.21
2018-06-03T01:02:40.798Z,1010.21
2018-06-03T01:03:21.191Z,1010.2
2018-06-03T01:04:01.613Z,1010.17
2018-06-03T01:04:42.005Z,1010.22
2018-06-03T01:05:22.403Z,1010.21
2018-06-03T01:06:02.821Z,1010.19
2018-06-03T01:06:43.195Z,1010.22
2018-06-03T01:07:23.581Z,1010.2
2018-06-03T01:08:04.045Z,1010.25
2018-06-03T01:08:44.392Z,1010.21
2018-06-03T01:09:24.838Z,1010.19
2018-06-03T01:10:05.274Z,1010.2
2018-06-03T01:10:45.709Z,1010.2
2018-06-03T01:11:26.100Z,1010.16
2018-06-03T01:12:06.565Z,1010.17
2018-06-03T01:12:46.963Z,1010.17
2018-06-03T01:13:27.342Z,1010.16
2018-06-03T01:14:07.750Z,1010.14
2018-06-03T01:14:48.214Z,1010.13
2018-06-03T01:15:28.567Z,1010.11
2018-06-03T01:16:08.943Z,1010.12
2018-06-03T01:16:49.356Z,1010.12
2018-06-03T01:17:29.754Z,1010.09
2018-06-03T01:18:10.152Z,1010.06
2018-06-03T01:18:50.630Z,1010.04
2018-06-03T01:19:31.003Z,1010.03
2018-06-03T01:20:11.432Z,1010.06
2018-06-03T01:20:51.835Z,1010.05
2018-06-03T01:21:32.245Z,1010.05
2018-06-03T01:22:12.623Z,1010.04
2018-06-03T01:22:53.022Z,1010.03
2018-06-03T01:23:33.424Z,1010
2018-06-03T01:24:13.824Z,1009.99
2018-06-03T01:24:54.190Z,1009.99
2018-06-03T01:25:34.595Z,1010.02
2018-06-03T01:26:15.007Z,1009.98
2018-06-03T01:26:55.390Z,1009.98
2018-06-03T01:27:35.795Z,1009.99
2018-06-03T01:28:16.180Z,1009.98
2018-06-03T01:28:56.611Z,1009.99
2018-06-03T01:29:37.009Z,1009.98
2018-06-03T01:30:17.386Z,1009.98
2018-06-03T01:30:57.770Z,1009.98
2018-06-03T01:31:38.201Z,1009.95
2018-06-03T01:32:18.617Z,1009.96
2018-06-03T01:32:59.055Z,1010
2018-06-03T01:33:39.447Z,1009.96
2018-06-03T01:34:19.846Z,1009.96
2018-06-03T01:35:00.271Z,1009.97
2018-06-03T01:35:40.708Z,1010.03
2018-06-03T01:36:21.093Z,1009.98
2018-06-03T01:37:01.482Z,1009.98
2018-06-03T01:37:41.920Z,1009.96
2018-06-03T01:38:22.286Z,1009.96
2018-06-03T01:39:02.755Z,1009.95
2018-06-03T01:39:43.121Z,1009.97
2018-06-03T01:40:23.512Z,1009.96
2018-06-03T01:41:03.919Z,1009.95
2018-06-03T01:41:44.321Z,1009.96
2018-06-03T01:42:24.726Z,1010
2018-06-03T01:43:05.113Z,1009.95
2018-06-03T01:43:45.536Z,1009.96
2018-06-03T01:44:25.961Z,1009.95
2018-06-03T01:45:06.294Z,1009.95
2018-06-03T01:45:46.711Z,1009.97
2018-06-03T01:46:27.116Z,1009.96
2018-06-03T01:47:07.537Z,1009.96
2018-06-03T01:47:47.987Z,1009.97
2018-06-03T01:48:28.360Z,1009.97
2018-06-03T01:49:08.832Z,1009.95
2018-06-03T01:49:49.218Z,1009.96
2018-06-03T01:50:29.639Z,1009.93
2018-06-03T01:51:10.060Z,1009.89
2018-06-03T01:51:50.467Z,1009.9
2018-06-03T01:52:30.863Z,1009.94
2018-06-03T01:53:11.256Z,1009.94
2018-06-03T01:53:51.610Z,1009.93
2018-06-03T01:54:32.059Z,1009.93
2018-06-03T01:55:12.411Z,1009.95
2018-06-03T01:55:52.856Z,1009.93
2018-06-03T01:56:33.284Z,1009.91
2018-06-03T01:57:13.647Z,1009.87
2018-06-03T01:57:54.086Z,1009.94
2018-06-03T01:58:34.510Z,1009.91
2018-06-03T01:59:14.899Z,1009.91
2018-06-03T01:59:55.325Z,1009.93
2018-06-03T02:00:35.731Z,1009.9
2018-06-03T02:01:16.148Z,1009.9
2018-06-03T02:01:56.604Z,1009.87
2018-06-03T02:02:36.943Z,1009.87
2018-06-03T02:03:17.392Z,1009.9
2018-06-03T02:03:57.778Z,1009.89
2018-06-03T02:04:38.144Z,1009.89
2018-06-03T02:05:18.585Z,1009.92
2018-06-03T02:05:58.972Z,1009.86
2018-06-03T02:06:39.423Z,1009.87
2018-06-03T02:07:19.867Z,1009.86
2018-06-03T02:08:00.261Z,1009.85
2018-06-03T02:08:40.624Z,1009.88
2018-06-03T02:09:21.088Z,1009.85
2018-06-03T02:10:01.421Z,1009.85
2018-06-03T02:10:41.814Z,1009.85
2018-06-03T02:11:22.216Z,1009.88
2018-06-03T02:12:02.645Z,1009.84
2018-06-03T02:12:43.049Z,1009.85
2018-06-03T02:13:23.428Z,1009.82
2018-06-03T02:14:03.854Z,1009.8
2018-06-03T02:14:44.216Z,1009.8
2018-06-03T02:15:24.668Z,1009.84
2018-06-03T02:16:05.025Z,1009.79
2018-06-03T02:16:45.441Z,1009.79
2018-06-03T02:17:25.848Z,1009.79
2018-06-03T02:18:06.220Z,1009.81
2018-06-03T02:18:46.678Z,1009.79
2018-06-03T02:19:27.004Z,1009.81
2018-06-03T02:20:07.504Z,1009.8
2018-06-03T02:20:47.850Z,1009.81
2018-06-03T02:21:28.230Z,1009.81
2018-06-03T02:22:08.626Z,1009.79
2018-06-03T02:22:49.041Z,1009.81
2018-06-03T02:23:29.459Z,1009.81
2018-06-03T02:24:09.870Z,1009.8
2018-06-03T02:24:50.288Z,1009.82
2018-06-03T02:25:30.662Z,1009.77
2018-06-03T02:26:11.054Z,1009.78
2018-06-03T02:26:51.460Z,1009.79
2018-06-03T02:27:31.899Z,1009.77
2018-06-03T02:28:12.252Z,1009.76
2018-06-03T02:28:52.686Z,1009.76
2018-06-03T02:29:33.070Z,1009.74
2018-06-03T02:30:13.479Z,1009.74
2018-06-03T02:30:53.897Z,1009.73
2018-06-03T02:31:34.240Z,1009.69
2018-06-03T02:32:14.699Z,1009.69
2018-06-03T02:32:55.076Z,1009.68
2018-06-03T02:33:35.499Z,1009.7
2018-06-03T02:34:15.932Z,1009.67
2018-06-03T02:34:56.311Z,1009.65
2018-06-03T02:35:36.773Z,1009.66
2018-06-03T02:36:17.921Z,1009.67
2018-06-03T02:36:58.355Z,1009.69
2018-06-03T02:37:38.726Z,1009.69
2018-06-03T02:38:19.159Z,1009.7
2018-06-03T02:38:59.544Z,1009.72
2018-06-03T02:39:40.014Z,1009.72
2018-06-03T02:40:20.338Z,1009.73
2018-06-03T02:41:00.729Z,1009.74
2018-06-03T02:41:41.168Z,1009.71
2018-06-03T02:42:21.597Z,1009.71
2018-06-03T02:43:01.970Z,1009.72
2018-06-03T02:43:42.400Z,1009.72
2018-06-03T02:44:22.748Z,1009.76
2018-06-03T02:45:03.173Z,1009.7
2018-06-03T02:45:43.551Z,1009.68
2018-06-03T02:46:24.026Z,1009.68
2018-06-03T02:47:04.394Z,1009.68
2018-06-03T02:47:44.739Z,1009.69
2018-06-03T02:48:25.177Z,1009.7
2018-06-03T02:49:05.583Z,1009.69
2018-06-03T02:49:45.999Z,1009.65
2018-06-03T02:50:26.381Z,1009.66
2018-06-03T02:51:06.791Z,1009.69
2018-06-03T02:51:47.177Z,1009.68
2018-06-03T02:52:27.617Z,1009.68
2018-06-03T02:53:08.008Z,1009.7
2018-06-03T02:53:48.395Z,1009.66
2018-06-03T02:54:28.788Z,1009.68
2018-06-03T02:55:09.228Z,1009.7
2018-06-03T02:55:49.592Z,1009.67
2018-06-03T02:56:29.967Z,1009.7
2018-06-03T02:57:10.401Z,1009.65
2018-06-03T02:57:50.826Z,1009.7
2018-06-03T02:58:31.186Z,1009.65
2018-06-03T02:59:11.585Z,1009.68
2018-06-03T02:59:51.967Z,1009.68
2018-06-03T03:00:32.372Z,1009.67
2018-06-03T03:01:12.765Z,1009.68
2018-06-03T03:01:53.171Z,1009.66
2018-06-03T03:02:33.565Z,1009.68
2018-06-03T03:03:13.989Z,1009.7
2018-06-03T03:03:54.367Z,1009.63
2018-06-03T03:04:34.768Z,1009.66
2018-06-03T03:05:15.186Z,1009.64
2018-06-03T03:05:55.572Z,1009.65
2018-06-03T03:06:35.963Z,1009.66
2018-06-03T03:07:16.362Z,1009.63
2018-06-03T03:07:56.817Z,1009.63
2018-06-03T03:08:37.239Z,1009.63
2018-06-03T03:09:31.276Z,1009.61
2018-06-03T03:10:38.387Z,1009.62
2018-06-03T03:12:46.068Z,1009.61
2018-06-03T03:13:26.413Z,1009.61
2018-06-03T03:14:06.803Z,1009.62
2018-06-03T03:14:47.251Z,1009.59
2018-06-03T03:15:27.659Z,1009.62
2018-06-03T03:16:08.100Z,1009.63
2018-06-03T03:16:48.484Z,1009.59
2018-06-03T03:17:28.862Z,1009.59
2018-06-03T03:18:09.288Z,1009.61
2018-06-03T03:18:49.682Z,1009.62
2018-06-03T03:19:30.164Z,1009.62
2018-06-03T03:20:10.508Z,1009.63
2018-06-03T03:20:50.915Z,1009.62
2018-06-03T03:21:31.308Z,1009.68
2018-06-03T03:22:11.717Z,1009.66
2018-06-03T03:22:52.129Z,1009.66
2018-06-03T03:23:32.528Z,1009.7
2018-06-03T03:24:12.875Z,1009.67
2018-06-03T03:24:53.292Z,1009.7
2018-06-03T03:25:33.707Z,1009.72
2018-06-03T03:26:14.096Z,1009.73
2018-06-03T03:26:54.457Z,1009.74
2018-06-03T03:27:34.895Z,1009.77
2018-06-03T03:28:15.309Z,1009.72
2018-06-03T03:28:55.698Z,1009.76
2018-06-03T03:29:36.127Z,1009.76
2018-06-03T03:30:16.551Z,1009.74
2018-06-03T03:30:56.966Z,1009.73
2018-06-03T03:31:37.372Z,1009.73
2018-06-03T03:32:17.764Z,1009.76
2018-06-03T03:32:58.141Z,1009.73
2018-06-03T03:33:38.587Z,1009.77
2018-06-03T03:34:18.989Z,1009.76
2018-06-03T03:34:59.346Z,1009.78
2018-06-03T03:35:39.815Z,1009.76
2018-06-03T03:36:22.989Z,1009.78
2018-06-03T03:37:06.251Z,1009.79
2018-06-03T03:37:46.686Z,1009.79
2018-06-03T03:38:27.376Z,1009.76
2018-06-03T03:39:07.592Z,1009.76
2018-06-03T03:39:48.018Z,1009.77
2018-06-03T03:45:09.550Z,1009.74
2018-06-03T03:45:58.591Z,1009.73
2018-06-03T03:46:48.625Z,1009.74
2018-06-03T03:47:38.680Z,1009.72
2018-06-03T03:48:27.561Z,1009.75
2018-06-03T03:49:16.537Z,1009.72
2018-06-03T03:50:05.597Z,1009.74
2018-06-03T03:50:48.756Z,1009.73
2018-06-03T03:51:29.166Z,1009.77
2018-06-03T03:52:09.530Z,1009.76
2018-06-03T03:52:49.985Z,1009.72
2018-06-03T03:53:30.365Z,1009.75
2018-06-03T03:54:10.781Z,1009.75
2018-06-03T03:54:51.207Z,1009.75
2018-06-03T03:55:31.567Z,1009.73
2018-06-03T03:56:12.013Z,1009.74
2018-06-03T03:56:52.380Z,1009.74
2018-06-03T03:57:32.795Z,1009.77
2018-06-03T03:58:13.202Z,1009.81
2018-06-03T03:58:53.626Z,1009.78
2018-06-03T03:59:33.987Z,1009.78
2018-06-03T04:00:14.383Z,1009.83
2018-06-03T04:00:54.798Z,1009.82
2018-06-03T04:01:35.167Z,1009.8
2018-06-03T04:02:15.591Z,1009.8
2018-06-03T04:02:56.001Z,1009.8
2018-06-03T04:03:36.359Z,1009.79
2018-06-03T04:42:04.585Z,1009.78
2018-06-03T04:42:44.941Z,1009.82
2018-06-03T04:43:25.377Z,1009.79
2018-06-03T04:44:05.785Z,1009.83
2018-06-03T04:44:46.141Z,1009.85
2018-06-03T04:45:26.592Z,1009.83
2018-06-03T04:46:06.915Z,1009.88
2018-06-03T04:46:47.335Z,1009.85
2018-06-03T04:47:27.713Z,1009.89
2018-06-03T04:48:08.152Z,1009.91
2018-06-03T04:48:48.578Z,1009.89
2018-06-03T04:49:28.939Z,1009.9
2018-06-03T04:50:09.345Z,1009.93
2018-06-03T04:50:49.806Z,1009.92
2018-06-03T04:51:30.256Z,1009.89
2018-06-03T04:52:10.657Z,1009.92
2018-06-03T04:52:51.045Z,1009.95
2018-06-03T04:53:31.504Z,1009.92
2018-06-03T04:54:11.849Z,1009.94
2018-06-03T04:54:52.255Z,1009.96
2018-06-03T04:55:32.639Z,1009.9
2018-06-03T04:56:13.086Z,1009.93
2018-06-03T04:56:53.514Z,1009.98
2018-06-03T04:57:33.877Z,1009.97
2018-06-03T04:58:14.306Z,1010
2018-06-03T04:58:54.716Z,1010.01
2018-06-03T04:59:35.096Z,1009.98
2018-06-03T05:00:15.509Z,1009.99
2018-06-03T05:00:55.938Z,1010.01
2018-06-03T05:01:36.350Z,1010.01
2018-06-03T05:02:16.776Z,1009.99
2018-06-03T05:02:57.155Z,1009.97
2018-06-03T05:03:37.570Z,1010.04
2018-06-03T05:04:18.003Z,1010
2018-06-03T05:04:58.403Z,1010.03
2018-06-03T05:05:38.840Z,1010
2018-06-03T05:06:19.271Z,1010.05
2018-06-03T05:06:59.623Z,1010.07
2018-06-03T05:07:40.028Z,1010.08
2018-06-03T05:08:20.407Z,1010.13
2018-06-03T05:09:00.841Z,1010.14
2018-06-03T05:09:41.258Z,1010.15
2018-06-03T05:10:21.626Z,1010.17
2018-06-03T05:11:02.019Z,1010.18
2018-06-03T05:11:42.465Z,1010.24
2018-06-03T05:12:22.829Z,1010.23
2018-06-03T05:13:03.290Z,1010.23
2018-06-03T05:13:43.645Z,1010.23
2018-06-03T05:14:24.070Z,1010.21
2018-06-03T05:15:04.462Z,1010.18
2018-06-03T05:15:44.888Z,1010.14
2018-06-03T05:16:25.281Z,1010.19
2018-06-03T05:17:05.701Z,1010.18
2018-06-03T05:17:46.152Z,1010.22
2018-06-03T05:18:26.551Z,1010.2
2018-06-03T05:19:06.962Z,1010.21
2018-06-03T05:19:47.342Z,1010.21
2018-06-03T05:20:27.811Z,1010.23
2018-06-03T05:21:08.184Z,1010.26
2018-06-03T05:21:48.543Z,1010.25
2018-06-03T05:22:28.995Z,1010.27
2018-06-03T05:23:09.411Z,1010.27
2018-06-03T05:23:49.818Z,1010.3
2018-06-03T05:24:30.203Z,1010.29
2018-06-03T05:25:10.582Z,1010.28
2018-06-03T05:25:50.990Z,1010.28
2018-06-03T05:26:31.391Z,1010.32
2018-06-03T05:27:11.860Z,1010.32
2018-06-03T05:27:52.260Z,1010.32
2018-06-03T05:28:32.667Z,1010.3
2018-06-03T05:29:13.052Z,1010.29
2018-06-03T05:29:53.505Z,1010.33
2018-06-03T05:30:33.879Z,1010.35
2018-06-03T05:31:14.318Z,1010.36
2018-06-03T05:31:54.685Z,1010.39
2018-06-03T05:32:35.098Z,1010.38
2018-06-03T05:33:15.530Z,1010.4
2018-06-03T05:33:55.936Z,1010.39
2018-06-03T05:34:36.302Z,1010.38
2018-06-03T05:35:16.802Z,1010.4
2018-06-03T05:35:57.153Z,1010.39
2018-06-03T05:36:37.598Z,1010.42
2018-06-03T05:37:18.013Z,1010.46
2018-06-03T05:37:58.377Z,1010.41
2018-06-03T05:38:38.818Z,1010.44
2018-06-03T05:39:19.160Z,1010.42
2018-06-03T05:39:59.591Z,1010.42
2018-06-03T05:40:40.065Z,1010.42
2018-06-03T05:41:20.426Z,1010.42
2018-06-03T05:42:00.839Z,1010.45
2018-06-03T05:42:41.287Z,1010.46
2018-06-03T05:43:21.743Z,1010.45
2018-06-03T05:44:02.103Z,1010.46
2018-06-03T05:44:42.496Z,1010.45
2018-06-03T05:45:22.920Z,1010.45
2018-06-03T05:46:03.344Z,1010.46
2018-06-03T05:46:43.916Z,1010.47
2018-06-03T05:47:24.255Z,1010.46
2018-06-03T05:48:04.669Z,1010.46
2018-06-03T05:48:45.065Z,1010.45
2018-06-03T05:49:25.484Z,1010.46
2018-06-03T05:50:05.898Z,1010.43
2018-06-03T05:50:46.294Z,1010.46
2018-06-03T05:51:26.717Z,1010.51
2018-06-03T05:52:07.167Z,1010.49
2018-06-03T05:52:47.580Z,1010.54
2018-06-03T05:53:27.971Z,1010.52
2018-06-03T05:54:08.428Z,1010.5
2018-06-03T05:54:48.810Z,1010.59
2018-06-03T05:55:29.242Z,1010.56
2018-06-03T05:56:09.648Z,1010.54
2018-06-03T05:56:50.014Z,1010.55
2018-06-03T05:57:30.430Z,1010.53
2018-06-03T05:58:11.032Z,1010.57
2018-06-03T05:58:51.436Z,1010.52
2018-06-03T05:59:31.853Z,1010.55
2018-06-03T06:00:12.238Z,1010.54
2018-06-03T06:00:52.706Z,1010.57
2018-06-03T06:01:33.053Z,1010.54
2018-06-03T06:02:13.509Z,1010.54
2018-06-03T06:02:53.916Z,1010.52
2018-06-03T06:03:34.289Z,1010.56
2018-06-03T06:04:14.770Z,1010.53
2018-06-03T06:04:55.134Z,1010.54
2018-06-03T06:05:35.531Z,1010.54
2018-06-03T06:06:15.957Z,1010.52
2018-06-03T06:06:56.360Z,1010.55
2018-06-03T06:07:36.734Z,1010.51
2018-06-03T06:08:17.160Z,1010.53
2018-06-03T06:08:57.571Z,1010.53
2018-06-03T06:09:37.973Z,1010.51
2018-06-03T06:10:18.400Z,1010.54
2018-06-03T06:10:58.848Z,1010.53
2018-06-03T06:11:39.247Z,1010.54
2018-06-03T06:12:19.670Z,1010.58
2018-06-03T06:12:59.993Z,1010.56
2018-06-03T06:13:40.399Z,1010.56
2018-06-03T06:14:20.827Z,1010.59
2018-06-03T06:15:01.270Z,1010.6
2018-06-03T06:15:41.744Z,1010.6
2018-06-03T06:16:22.144Z,1010.6
2018-06-03T06:17:02.522Z,1010.62
2018-06-03T06:17:42.957Z,1010.64
2018-06-03T06:18:23.367Z,1010.62
2018-06-03T06:19:03.808Z,1010.58
2018-06-03T06:19:44.207Z,1010.61
2018-06-03T06:20:24.660Z,1010.64
2018-06-03T06:21:05.077Z,1010.63
2018-06-03T06:21:55.232Z,1010.67
2018-06-03T06:22:35.635Z,1010.62
2018-06-03T06:23:16.088Z,1010.66
2018-06-03T06:23:56.485Z,1010.63
2018-06-03T06:24:36.846Z,1010.61
2018-06-03T06:25:17.265Z,1010.64
2018-06-03T06:25:57.690Z,1010.63
2018-06-03T06:26:38.106Z,1010.61
2018-06-03T06:27:18.496Z,1010.6
2018-06-03T06:27:58.872Z,1010.61
2018-06-03T06:28:39.264Z,1010.6
2018-06-03T06:29:19.723Z,1010.61
2018-06-03T06:30:00.134Z,1010.59
2018-06-03T06:30:40.515Z,1010.57
2018-06-03T06:31:20.894Z,1010.59
2018-06-03T06:32:01.329Z,1010.61
2018-06-03T06:32:41.744Z,1010.61
2018-06-03T06:33:29.507Z,1010.58
2018-06-03T06:34:09.871Z,1010.55
2018-06-03T06:34:50.386Z,1010.6
2018-06-03T06:35:30.732Z,1010.6
2018-06-03T06:36:11.196Z,1010.61
2018-06-03T06:36:51.552Z,1010.6
2018-06-03T06:37:32.005Z,1010.64
2018-06-03T06:38:12.372Z,1010.6
2018-06-03T06:38:52.823Z,1010.6
2018-06-03T06:39:33.193Z,1010.57
2018-06-03T06:40:13.618Z,1010.64
2018-06-03T06:40:54.019Z,1010.6
2018-06-03T06:41:34.477Z,1010.6
2018-06-03T06:42:14.840Z,1010.62
2018-06-03T06:42:55.289Z,1010.64
2018-06-03T06:43:35.720Z,1010.61
2018-06-03T06:44:16.130Z,1010.64
2018-06-03T06:44:56.525Z,1010.65
2018-06-03T06:45:36.952Z,1010.63
2018-06-03T06:46:17.342Z,1010.6
2018-06-03T06:46:57.845Z,1010.62
2018-06-03T06:47:38.226Z,1010.63
2018-06-03T06:48:32.879Z,1010.64
2018-06-03T06:49:16.039Z,1010.64
2018-06-03T06:49:56.472Z,1010.65
2018-06-03T06:50:36.926Z,1010.64
2018-06-03T06:51:17.324Z,1010.64
2018-06-03T06:51:57.744Z,1010.62
2018-06-03T06:52:47.987Z,1010.67
2018-06-03T06:53:35.579Z,1010.61
2018-06-03T06:54:22.618Z,1010.62
2018-06-03T06:55:03.049Z,1010.66
2018-06-03T06:55:43.459Z,1010.61
2018-06-03T06:56:23.880Z,1010.6
2018-06-03T06:57:04.379Z,1010.61
2018-06-03T06:59:09.539Z,1010.65
2018-06-03T06:59:49.979Z,1010.66
2018-06-03T07:00:30.356Z,1010.63
2018-06-03T07:01:10.826Z,1010.65
2018-06-03T07:01:51.253Z,1010.68
2018-06-03T07:02:31.712Z,1010.66
2018-06-03T07:03:12.130Z,1010.63
2018-06-03T07:03:52.537Z,1010.63
2018-06-03T07:04:32.926Z,1010.63
2018-06-03T07:05:13.390Z,1010.62
2018-06-03T07:05:53.838Z,1010.64
2018-06-03T07:06:34.216Z,1010.62
2018-06-03T07:07:14.634Z,1010.63
2018-06-03T07:07:55.058Z,1010.63
2018-06-03T07:08:35.461Z,1010.6
2018-06-03T07:09:15.868Z,1010.63
2018-06-03T07:09:56.304Z,1010.65
2018-06-03T07:10:36.694Z,1010.64
2018-06-03T07:11:17.085Z,1010.62
2018-06-03T07:11:57.544Z,1010.62
2018-06-03T07:12:37.927Z,1010.63
2018-06-03T07:13:18.366Z,1010.64
2018-06-03T07:13:58.790Z,1010.64
2018-06-03T07:14:39.256Z,1010.63
2018-06-03T07:15:19.691Z,1010.66
2018-06-03T07:16:00.085Z,1010.66
2018-06-03T07:16:40.474Z,1010.68
2018-06-03T07:17:20.945Z,1010.66
2018-06-03T07:18:01.473Z,1010.68
2018-06-03T07:18:41.896Z,1010.67
2018-06-03T07:19:22.352Z,1010.67
2018-06-03T07:20:02.745Z,1010.68
2018-06-03T07:20:43.205Z,1010.69
2018-06-03T07:21:23.595Z,1010.66
2018-06-03T07:22:03.983Z,1010.68
2018-06-03T07:22:44.411Z,1010.68
2018-06-03T07:23:24.868Z,1010.64
2018-06-03T07:24:05.259Z,1010.65
2018-06-03T07:24:45.693Z,1010.68
2018-06-03T07:25:26.097Z,1010.68
2018-06-03T07:26:06.487Z,1010.67
2018-06-03T07:26:46.937Z,1010.66
2018-06-03T07:27:27.357Z,1010.66
2018-06-03T07:28:07.812Z,1010.64
2018-06-03T07:28:48.221Z,1010.63
2018-06-03T07:29:28.664Z,1010.63
2018-06-03T07:30:09.034Z,1010.61
2018-06-03T07:30:49.441Z,1010.62
2018-06-03T07:31:29.889Z,1010.58
2018-06-03T07:32:10.332Z,1010.55
2018-06-03T07:32:50.775Z,1010.6
2018-06-03T07:33:31.167Z,1010.57
2018-06-03T07:34:11.568Z,1010.57
2018-06-03T07:34:51.992Z,1010.57
2018-06-03T07:35:32.435Z,1010.57
2018-06-03T07:36:12.802Z,1010.57
2018-06-03T07:36:53.263Z,1010.58
2018-06-03T07:37:33.630Z,1010.54
2018-06-03T07:38:14.097Z,1010.57
2018-06-03T07:38:54.502Z,1010.59
2018-06-03T07:39:34.911Z,1010.56
2018-06-03T07:40:15.340Z,1010.56
2018-06-03T07:40:56.407Z,1010.53
2018-06-03T07:41:36.872Z,1010.53
2018-06-03T07:42:17.360Z,1010.58
2018-06-03T07:42:57.738Z,1010.54
2018-06-03T07:43:38.253Z,1010.54
2018-06-03T07:44:18.634Z,1010.52
2018-06-03T07:44:59.053Z,1010.54
2018-06-03T07:45:39.442Z,1010.51
2018-06-03T07:46:19.899Z,1010.48
2018-06-03T07:47:00.308Z,1010.52
2018-06-03T07:47:40.744Z,1010.5
2018-06-03T07:48:21.192Z,1010.52
2018-06-03T07:49:01.602Z,1010.47
2018-06-03T07:49:42.035Z,1010.47
2018-06-03T07:50:22.484Z,1010.47
2018-06-03T07:51:02.904Z,1010.44
2018-06-03T07:51:43.304Z,1010.43
2018-06-03T07:52:23.737Z,1010.45
2018-06-03T07:53:04.143Z,1010.46
2018-06-03T07:53:44.581Z,1010.43
2018-06-03T07:54:24.991Z,1010.5
2018-06-03T07:55:05.401Z,1010.5
2018-06-03T07:55:45.827Z,1010.48
2018-06-03T07:56:26.374Z,1010.47
2018-06-03T07:57:06.808Z,1010.48
2018-06-03T07:57:47.231Z,1010.48
2018-06-03T07:58:27.612Z,1010.46
2018-06-03T07:59:08.000Z,1010.51
2018-06-03T07:59:48.430Z,1010.51
2018-06-03T08:00:28.859Z,1010.49
2018-06-03T08:01:09.244Z,1010.52
2018-06-03T08:01:49.657Z,1010.49
2018-06-03T08:02:30.119Z,1010.45
2018-06-03T08:03:10.487Z,1010.42
2018-06-03T08:03:50.867Z,1010.48
2018-06-03T08:04:31.322Z,1010.46
2018-06-03T08:05:11.713Z,1010.45
2018-06-03T08:05:52.154Z,1010.47
2018-06-03T08:06:32.551Z,1010.44
2018-06-03T08:07:12.962Z,1010.43
2018-06-03T08:07:53.375Z,1010.45
2018-06-03T08:08:33.797Z,1010.42
2018-06-03T08:09:14.203Z,1010.42
2018-06-03T08:09:54.623Z,1010.41
2018-06-03T08:10:35.060Z,1010.44
2018-06-03T08:11:15.498Z,1010.41
2018-06-03T08:11:55.910Z,1010.44
2018-06-03T08:12:36.313Z,1010.43
2018-06-03T08:13:16.745Z,1010.43
2018-06-03T08:13:57.136Z,1010.43
2018-06-03T08:14:37.571Z,1010.42
2018-06-03T08:15:17.974Z,1010.45
2018-06-03T08:15:58.424Z,1010.44
2018-06-03T08:16:38.831Z,1010.48
2018-06-03T08:17:19.241Z,1010.48
2018-06-03T08:17:59.693Z,1010.48
2018-06-03T08:18:40.379Z,1010.46
2018-06-03T08:19:20.776Z,1010.46
2018-06-03T08:20:01.164Z,1010.49
2018-06-03T08:20:41.583Z,1010.45
2018-06-03T08:21:22.063Z,1010.46
2018-06-03T08:22:02.447Z,1010.45
2018-06-03T08:22:42.871Z,1010.43
2018-06-03T08:23:23.306Z,1010.47
2018-06-03T08:24:03.748Z,1010.41
2018-06-03T08:24:44.154Z,1010.46
2018-06-03T08:25:24.512Z,1010.48
2018-06-03T08:26:04.951Z,1010.45
2018-06-03T08:26:45.317Z,1010.46
2018-06-03T08:27:25.780Z,1010.47
2018-06-03T08:28:06.205Z,1010.44
2018-06-03T08:28:46.577Z,1010.45
2018-06-03T08:29:27.017Z,1010.38
2018-06-03T08:30:07.467Z,1010.41
2018-06-03T08:30:47.867Z,1010.41
2018-06-03T08:31:28.295Z,1010.4
2018-06-03T08:32:08.709Z,1010.39
2018-06-03T08:32:49.134Z,1010.4
2018-06-03T08:33:29.499Z,1010.44
2018-06-03T08:34:09.883Z,1010.4
2018-06-03T08:34:50.321Z,1010.43
2018-06-03T08:35:30.757Z,1010.43
2018-06-03T08:36:11.195Z,1010.44
2018-06-03T08:36:51.598Z,1010.42
2018-06-03T08:37:32.036Z,1010.46
2018-06-03T08:38:12.459Z,1010.43
2018-06-03T08:38:52.855Z,1010.41
2018-06-03T08:39:33.285Z,1010.36
2018-06-03T08:40:13.770Z,1010.38
2018-06-03T08:40:54.086Z,1010.39
2018-06-03T08:41:34.508Z,1010.4
2018-06-03T08:42:14.958Z,1010.41
2018-06-03T08:42:55.320Z,1010.38
2018-06-03T08:43:35.745Z,1010.4
2018-06-03T08:44:16.163Z,1010.44
2018-06-03T08:44:56.580Z,1010.37
2018-06-03T08:45:37.002Z,1010.41
2018-06-03T08:46:17.429Z,1010.4
2018-06-03T08:46:57.832Z,1010.35
2018-06-03T08:47:38.225Z,1010.4
2018-06-03T08:48:18.658Z,1010.4
2018-06-03T08:48:59.105Z,1010.37
2018-06-03T08:49:39.482Z,1010.42
2018-06-03T08:50:19.945Z,1010.37
2018-06-03T08:51:00.339Z,1010.38
2018-06-03T08:51:40.755Z,1010.38
2018-06-03T08:52:21.152Z,1010.36
2018-06-03T08:53:01.587Z,1010.37
2018-06-03T08:53:42.023Z,1010.33
2018-06-03T08:54:22.423Z,1010.34
2018-06-03T08:55:02.831Z,1010.35
2018-06-03T08:55:43.265Z,1010.36
2018-06-03T08:56:23.645Z,1010.32
2018-06-03T08:57:04.061Z,1010.34
2018-06-03T08:57:44.496Z,1010.34
2018-06-03T08:58:24.901Z,1010.35